LRI4LW GCXO-GCTS
Flight info
| Callsign | LRI4LW |
|---|---|
| Flight time | 0h 21m |
| Altitude | 15000 |
| Route | YEQAY |
| Aircraft | B350/L-SBGRW/S |
Departure
| Time | 2026-04-21 18:23 |
|---|---|
| Airport | Tenerife Norte-Ciudad de La Laguna Airport (GCXO) |
Arrival
| Time | 2026-04-21 18:44 |
|---|---|
| Airport | Tenerife Sur Airport (GCTS) |
| Time | Latitude | Longitude | Altitude | Speed | Heading |
|---|---|---|---|---|---|
| 2026-04-21 18:10 | 28.48840 | -16.35293 | 2069 ft | 0 kts | 111° |
| 2026-04-21 18:19 | 28.48838 | -16.35291 | 2069 ft | 2 kts | 138° |
| 2026-04-21 18:19 | 28.48802 | -16.35256 | 2070 ft | 9 kts | 131° |
| 2026-04-21 18:20 | 28.48762 | -16.35221 | 2072 ft | 6 kts | 186° |
| 2026-04-21 18:20 | 28.48734 | -16.35209 | 2076 ft | 15 kts | 126° |
| 2026-04-21 18:20 | 28.48684 | -16.35060 | 2079 ft | 22 kts | 110° |
| 2026-04-21 18:20 | 28.48629 | -16.34896 | 2079 ft | 23 kts | 112° |
| 2026-04-21 18:21 | 28.48582 | -16.34749 | 2073 ft | 17 kts | 108° |
| 2026-04-21 18:21 | 28.48535 | -16.34606 | 2065 ft | 21 kts | 112° |
| 2026-04-21 18:21 | 28.48477 | -16.34440 | 2057 ft | 24 kts | 111° |
| 2026-04-21 18:21 | 28.48426 | -16.34286 | 2051 ft | 16 kts | 110° |
| 2026-04-21 18:22 | 28.48372 | -16.34210 | 2048 ft | 11 kts | 142° |
| 2026-04-21 18:22 | 28.48302 | -16.34145 | 2047 ft | 14 kts | 141° |
| 2026-04-21 18:22 | 28.48262 | -16.34152 | 2049 ft | 4 kts | 285° |
| 2026-04-21 18:22 | 28.48273 | -16.34184 | 2050 ft | 18 kts | 295° |
| 2026-04-21 18:23 | 28.48424 | -16.34628 | 2068 ft | 97 kts | 291° |
| 2026-04-21 18:23 | 28.48720 | -16.35512 | 2204 ft | 138 kts | 296° |
| 2026-04-21 18:23 | 28.49097 | -16.36624 | 2677 ft | 158 kts | 292° |
| 2026-04-21 18:23 | 28.49468 | -16.37780 | 3333 ft | 157 kts | 291° |
| 2026-04-21 18:24 | 28.49860 | -16.38950 | 3947 ft | 160 kts | 291° |
| 2026-04-21 18:24 | 28.50251 | -16.40139 | 4560 ft | 163 kts | 290° |
| 2026-04-21 18:24 | 28.50662 | -16.41394 | 5028 ft | 175 kts | 289° |
| 2026-04-21 18:24 | 28.51099 | -16.42711 | 5536 ft | 181 kts | 289° |
| 2026-04-21 18:25 | 28.51551 | -16.44069 | 6007 ft | 186 kts | 288° |
| 2026-04-21 18:25 | 28.51986 | -16.45472 | 6474 ft | 189 kts | 281° |
| 2026-04-21 18:25 | 28.51990 | -16.46957 | 6968 ft | 187 kts | 262° |
| 2026-04-21 18:25 | 28.51848 | -16.48453 | 7378 ft | 192 kts | 264° |
| 2026-04-21 18:26 | 28.51731 | -16.49969 | 7868 ft | 192 kts | 264° |
| 2026-04-21 18:26 | 28.51602 | -16.51491 | 8344 ft | 193 kts | 264° |
| 2026-04-21 18:26 | 28.51469 | -16.53024 | 8815 ft | 195 kts | 264° |
| 2026-04-21 18:26 | 28.51335 | -16.54563 | 9306 ft | 196 kts | 264° |
| 2026-04-21 18:27 | 28.51202 | -16.56113 | 9795 ft | 198 kts | 264° |
| 2026-04-21 18:27 | 28.51068 | -16.57674 | 10217 ft | 199 kts | 264° |
| 2026-04-21 18:27 | 28.50933 | -16.59232 | 10615 ft | 201 kts | 264° |
| 2026-04-21 18:27 | 28.50794 | -16.60828 | 10974 ft | 206 kts | 264° |
| 2026-04-21 18:28 | 28.50648 | -16.62529 | 10995 ft | 225 kts | 264° |
| 2026-04-21 18:28 | 28.50491 | -16.64355 | 11012 ft | 238 kts | 264° |
| 2026-04-21 18:28 | 28.50325 | -16.66272 | 11004 ft | 247 kts | 264° |
| 2026-04-21 18:28 | 28.50153 | -16.68242 | 11005 ft | 252 kts | 264° |
| 2026-04-21 18:29 | 28.49979 | -16.70234 | 11002 ft | 254 kts | 264° |
| 2026-04-21 18:29 | 28.49803 | -16.72240 | 11001 ft | 256 kts | 264° |
| 2026-04-21 18:29 | 28.49630 | -16.74230 | 11001 ft | 257 kts | 264° |
| 2026-04-21 18:29 | 28.49452 | -16.76260 | 11001 ft | 258 kts | 264° |
| 2026-04-21 18:30 | 28.49273 | -16.78290 | 10998 ft | 259 kts | 264° |
| 2026-04-21 18:30 | 28.49094 | -16.80328 | 11003 ft | 259 kts | 264° |
| 2026-04-21 18:30 | 28.48837 | -16.82350 | 10994 ft | 259 kts | 255° |
| 2026-04-21 18:30 | 28.48082 | -16.84208 | 11000 ft | 260 kts | 238° |
| 2026-04-21 18:31 | 28.46932 | -16.85804 | 10993 ft | 262 kts | 230° |
| 2026-04-21 18:31 | 28.45727 | -16.87373 | 10993 ft | 265 kts | 231° |
| 2026-04-21 18:31 | 28.44525 | -16.88965 | 10992 ft | 266 kts | 231° |
| 2026-04-21 18:31 | 28.43307 | -16.90554 | 10993 ft | 267 kts | 230° |
| 2026-04-21 18:32 | 28.42083 | -16.92150 | 10995 ft | 268 kts | 230° |
| 2026-04-21 18:32 | 28.40856 | -16.93750 | 10991 ft | 269 kts | 231° |
| 2026-04-21 18:32 | 28.39644 | -16.95335 | 10986 ft | 269 kts | 231° |
| 2026-04-21 18:32 | 28.38413 | -16.96940 | 10989 ft | 269 kts | 231° |
| 2026-04-21 18:33 | 28.37181 | -16.98548 | 10987 ft | 269 kts | 231° |
| 2026-04-21 18:33 | 28.35948 | -17.00157 | 10989 ft | 270 kts | 230° |
| 2026-04-21 18:33 | 28.34613 | -17.01653 | 10899 ft | 274 kts | 216° |
| 2026-04-21 18:33 | 28.32803 | -17.02432 | 10599 ft | 285 kts | 189° |
| 2026-04-21 18:34 | 28.30830 | -17.02207 | 10310 ft | 290 kts | 164° |
| 2026-04-21 18:34 | 28.29016 | -17.01263 | 10046 ft | 290 kts | 155° |
| 2026-04-21 18:34 | 28.27194 | -17.00298 | 9773 ft | 287 kts | 161° |
| 2026-04-21 18:34 | 28.25294 | -16.99646 | 9482 ft | 284 kts | 170° |
| 2026-04-21 18:35 | 28.23988 | -16.99327 | 9287 ft | 283 kts | 171° |
| 2026-04-21 18:35 | 28.21460 | -16.98589 | 8912 ft | 283 kts | 166° |
| 2026-04-21 18:35 | 28.19569 | -16.97965 | 8627 ft | 282 kts | 167° |
| 2026-04-21 18:35 | 28.17678 | -16.97384 | 8354 ft | 281 kts | 168° |
| 2026-04-21 18:36 | 28.15816 | -16.96708 | 8075 ft | 281 kts | 160° |
| 2026-04-21 18:36 | 28.14026 | -16.95859 | 7980 ft | 275 kts | 160° |
| 2026-04-21 18:36 | 28.12280 | -16.95071 | 7974 ft | 267 kts | 161° |
| 2026-04-21 18:36 | 28.10532 | -16.94277 | 7621 ft | 274 kts | 160° |
| 2026-04-21 18:37 | 28.08739 | -16.93455 | 7229 ft | 280 kts | 160° |
| 2026-04-21 18:37 | 28.06928 | -16.92627 | 6847 ft | 279 kts | 160° |
| 2026-04-21 18:37 | 28.05145 | -16.91813 | 6381 ft | 273 kts | 159° |
| 2026-04-21 18:37 | 28.03409 | -16.91017 | 5855 ft | 265 kts | 159° |
| 2026-04-21 18:38 | 28.01717 | -16.90243 | 5339 ft | 260 kts | 158° |
| 2026-04-21 18:38 | 28.00053 | -16.89486 | 4838 ft | 256 kts | 158° |
| 2026-04-21 18:38 | 27.98442 | -16.88674 | 4324 ft | 252 kts | 148° |
| 2026-04-21 18:38 | 27.97119 | -16.87393 | 3798 ft | 250 kts | 130° |
| 2026-04-21 18:39 | 27.96159 | -16.85797 | 3290 ft | 249 kts | 119° |
| 2026-04-21 18:39 | 27.95329 | -16.84097 | 2963 ft | 240 kts | 110° |
| 2026-04-21 18:39 | 27.95148 | -16.82334 | 2966 ft | 217 kts | 75° |
| 2026-04-21 18:39 | 27.95814 | -16.80908 | 2963 ft | 200 kts | 47° |
| 2026-04-21 18:40 | 27.96606 | -16.79658 | 2956 ft | 193 kts | 61° |
| 2026-04-21 18:40 | 27.97125 | -16.78282 | 2963 ft | 186 kts | 64° |
| 2026-04-21 18:40 | 27.97449 | -16.77391 | 2959 ft | 184 kts | 64° |
| 2026-04-21 18:40 | 27.98084 | -16.75567 | 2963 ft | 193 kts | 66° |
| 2026-04-21 18:41 | 27.98585 | -16.74120 | 2963 ft | 202 kts | 66° |
| 2026-04-21 18:41 | 27.99119 | -16.72599 | 2784 ft | 212 kts | 66° |
| 2026-04-21 18:41 | 27.99633 | -16.71092 | 2512 ft | 198 kts | 66° |
| 2026-04-21 18:41 | 28.00127 | -16.69698 | 2260 ft | 184 kts | 66° |
| 2026-04-21 18:42 | 28.00575 | -16.68387 | 2027 ft | 176 kts | 66° |
| 2026-04-21 18:42 | 28.01021 | -16.67113 | 1794 ft | 176 kts | 65° |
| 2026-04-21 18:42 | 28.01452 | -16.65866 | 1566 ft | 162 kts | 65° |
| 2026-04-21 18:42 | 28.01849 | -16.64716 | 1351 ft | 153 kts | 65° |
| 2026-04-21 18:43 | 28.02237 | -16.63621 | 1153 ft | 148 kts | 66° |
| 2026-04-21 18:43 | 28.02602 | -16.62549 | 904 ft | 143 kts | 69° |
| 2026-04-21 18:43 | 28.02947 | -16.61539 | 737 ft | 136 kts | 67° |
| 2026-04-21 18:43 | 28.03290 | -16.60550 | 532 ft | 123 kts | 66° |
| 2026-04-21 18:44 | 28.03588 | -16.59754 | 390 ft | 102 kts | 69° |
| 2026-04-21 18:44 | 28.03847 | -16.58980 | 276 ft | 115 kts | 69° |
| 2026-04-21 18:44 | 28.04110 | -16.58226 | 197 ft | 66 kts | 69° |
| 2026-04-21 18:44 | 28.04239 | -16.57849 | 193 ft | 31 kts | 67° |
| 2026-04-21 18:45 | 28.04304 | -16.57762 | 193 ft | 13 kts | 294° |
| 2026-04-21 18:45 | 28.04299 | -16.57917 | 198 ft | 37 kts | 267° |
| 2026-04-21 18:45 | 28.04297 | -16.58133 | 218 ft | 19 kts | 299° |
| 2026-04-21 18:45 | 28.04387 | -16.58206 | 219 ft | 12 kts | 332° |
| 2026-04-21 18:46 | 28.04423 | -16.58239 | 221 ft | 7 kts | 284° |
| 2026-04-21 18:46 | 28.04410 | -16.58296 | 221 ft | 9 kts | 249° |
| 2026-04-21 18:46 | 28.04386 | -16.58368 | 221 ft | 10 kts | 255° |
| 2026-04-21 18:46 | 28.04423 | -16.58413 | 222 ft | 4 kts | 283° |
| 2026-04-21 18:47 | 28.04413 | -16.58456 | 222 ft | 7 kts | 254° |
| 2026-04-21 18:47 | 28.04436 | -16.58471 | 222 ft | 4 kts | 40° |
| 2026-04-21 18:47 | 28.04443 | -16.58453 | 222 ft | 2 kts | 66° |
| 2026-04-21 18:47 | 28.04445 | -16.58450 | 222 ft | 1 kts | 66° |
| 2026-04-21 18:48 | 28.04445 | -16.58449 | 222 ft | 0 kts | 66° |